sensor_id;sensor_type;location;lat;lon;timestamp;temperature;humidity
18047;DHT22;9148;51.454;13.862;2024-03-07T00:00:21;6.30;99.90
18047;DHT22;9148;51.454;13.862;2024-03-07T00:02:49;7.00;99.90
18047;DHT22;9148;51.454;13.862;2024-03-07T00:05:19;6.30;99.90
18047;DHT22;9148;51.454;13.862;2024-03-07T00:07:47;7.20;99.90
18047;DHT22;9148;51.454;13.862;2024-03-07T00:10:13;6.30;99.90
18047;DHT22;9148;51.454;13.862;2024-03-07T00:12:40;6.30;99.90
18047;DHT22;9148;51.454;13.862;2024-03-07T00:15:07;6.30;99.90
18047;DHT22;9148;51.454;13.862;2024-03-07T00:17:34;6.30;99.90
18047;DHT22;9148;51.454;13.862;2024-03-07T00:20:01;6.30;99.90
18047;DHT22;9148;51.454;13.862;2024-03-07T00:22:27;6.30;99.90
18047;DHT22;9148;51.454;13.862;2024-03-07T00:24:55;6.30;99.90
18047;DHT22;9148;51.454;13.862;2024-03-07T00:27:21;7.00;99.90
18047;DHT22;9148;51.454;13.862;2024-03-07T00:29:48;6.30;99.90
18047;DHT22;9148;51.454;13.862;2024-03-07T00:32:22;6.80;99.90
18047;DHT22;9148;51.454;13.862;2024-03-07T00:34:49;7.00;99.90
18047;DHT22;9148;51.454;13.862;2024-03-07T00:37:16;7.00;99.90
18047;DHT22;9148;51.454;13.862;2024-03-07T00:39:42;6.30;99.90
18047;DHT22;9148;51.454;13.862;2024-03-07T00:42:08;6.30;99.90
18047;DHT22;9148;51.454;13.862;2024-03-07T00:44:34;6.50;99.90
18047;DHT22;9148;51.454;13.862;2024-03-07T00:47:00;6.90;99.90
18047;DHT22;9148;51.454;13.862;2024-03-07T00:49:27;6.30;99.90
18047;DHT22;9148;51.454;13.862;2024-03-07T00:51:54;6.70;99.90
18047;DHT22;9148;51.454;13.862;2024-03-07T00:54:20;6.20;99.90
18047;DHT22;9148;51.454;13.862;2024-03-07T00:56:45;6.40;99.90
18047;DHT22;9148;51.454;13.862;2024-03-07T00:59:14;6.20;99.90
18047;DHT22;9148;51.454;13.862;2024-03-07T01:01:41;6.50;99.90
18047;DHT22;9148;51.454;13.862;2024-03-07T01:04:07;6.00;99.90
18047;DHT22;9148;51.454;13.862;2024-03-07T01:06:33;5.90;99.90
18047;DHT22;9148;51.454;13.862;2024-03-07T01:09:01;6.00;99.90
18047;DHT22;9148;51.454;13.862;2024-03-07T01:11:28;6.00;99.90
18047;DHT22;9148;51.454;13.862;2024-03-07T01:13:53;6.40;99.90
18047;DHT22;9148;51.454;13.862;2024-03-07T01:16:19;6.80;99.90
18047;DHT22;9148;51.454;13.862;2024-03-07T01:18:45;6.40;99.90
18047;DHT22;9148;51.454;13.862;2024-03-07T01:21:11;6.40;99.90
18047;DHT22;9148;51.454;13.862;2024-03-07T01:23:36;6.00;99.90
18047;DHT22;9148;51.454;13.862;2024-03-07T01:26:02;6.00;99.90
18047;DHT22;9148;51.454;13.862;2024-03-07T01:28:28;6.00;99.90
18047;DHT22;9148;51.454;13.862;2024-03-07T01:30:56;6.00;99.90
18047;DHT22;9148;51.454;13.862;2024-03-07T01:33:23;6.60;99.90
18047;DHT22;9148;51.454;13.862;2024-03-07T01:35:49;6.00;99.90
18047;DHT22;9148;51.454;13.862;2024-03-07T01:38:16;5.90;99.90
18047;DHT22;9148;51.454;13.862;2024-03-07T01:40:43;6.00;99.90
18047;DHT22;9148;51.454;13.862;2024-03-07T01:43:09;6.00;99.90
18047;DHT22;9148;51.454;13.862;2024-03-07T01:45:38;6.00;99.90
18047;DHT22;9148;51.454;13.862;2024-03-07T01:48:09;6.00;99.90
18047;DHT22;9148;51.454;13.862;2024-03-07T01:50:35;6.30;99.90
18047;DHT22;9148;51.454;13.862;2024-03-07T01:53:06;6.70;99.90
18047;DHT22;9148;51.454;13.862;2024-03-07T01:55:33;6.40;99.90
18047;DHT22;9148;51.454;13.862;2024-03-07T01:57:59;6.00;99.90
18047;DHT22;9148;51.454;13.862;2024-03-07T02:00:27;6.10;99.90
18047;DHT22;9148;51.454;13.862;2024-03-07T02:02:53;6.80;99.90
18047;DHT22;9148;51.454;13.862;2024-03-07T02:05:20;6.10;99.90
18047;DHT22;9148;51.454;13.862;2024-03-07T02:07:47;6.00;99.90
18047;DHT22;9148;51.454;13.862;2024-03-07T02:10:13;6.00;99.90
18047;DHT22;9148;51.454;13.862;2024-03-07T02:12:39;6.00;99.90
18047;DHT22;9148;51.454;13.862;2024-03-07T02:15:05;6.90;99.90
18047;DHT22;9148;51.454;13.862;2024-03-07T02:17:31;6.20;99.90
18047;DHT22;9148;51.454;13.862;2024-03-07T02:19:57;6.10;99.90
18047;DHT22;9148;51.454;13.862;2024-03-07T02:22:24;6.70;99.90
18047;DHT22;9148;51.454;13.862;2024-03-07T02:24:51;6.10;99.90
18047;DHT22;9148;51.454;13.862;2024-03-07T02:27:17;6.00;99.90
18047;DHT22;9148;51.454;13.862;2024-03-07T02:29:43;7.00;99.90
18047;DHT22;9148;51.454;13.862;2024-03-07T02:32:08;7.10;99.90
18047;DHT22;9148;51.454;13.862;2024-03-07T02:34:35;7.00;99.90
18047;DHT22;9148;51.454;13.862;2024-03-07T02:37:01;6.10;99.90
18047;DHT22;9148;51.454;13.862;2024-03-07T02:39:27;6.80;99.90
18047;DHT22;9148;51.454;13.862;2024-03-07T02:41:52;6.10;99.90
18047;DHT22;9148;51.454;13.862;2024-03-07T02:44:18;6.00;99.90
18047;DHT22;9148;51.454;13.862;2024-03-07T02:46:45;6.10;99.90
18047;DHT22;9148;51.454;13.862;2024-03-07T02:49:12;6.10;99.90
18047;DHT22;9148;51.454;13.862;2024-03-07T02:51:39;6.10;99.90
18047;DHT22;9148;51.454;13.862;2024-03-07T02:54:07;6.70;99.90
18047;DHT22;9148;51.454;13.862;2024-03-07T02:56:33;6.00;99.90
18047;DHT22;9148;51.454;13.862;2024-03-07T02:58:59;6.50;99.90
18047;DHT22;9148;51.454;13.862;2024-03-07T03:01:24;6.00;99.90
18047;DHT22;9148;51.454;13.862;2024-03-07T03:03:50;6.40;99.90
18047;DHT22;9148;51.454;13.862;2024-03-07T03:06:16;6.70;99.90
18047;DHT22;9148;51.454;13.862;2024-03-07T03:08:41;5.90;99.90
18047;DHT22;9148;51.454;13.862;2024-03-07T03:11:07;6.00;99.90
18047;DHT22;9148;51.454;13.862;2024-03-07T03:13:37;6.00;99.90
18047;DHT22;9148;51.454;13.862;2024-03-07T03:16:04;5.90;99.90
18047;DHT22;9148;51.454;13.862;2024-03-07T03:18:32;6.20;99.90
18047;DHT22;9148;51.454;13.862;2024-03-07T03:20:59;5.90;99.90
18047;DHT22;9148;51.454;13.862;2024-03-07T03:23:26;5.70;99.90
18047;DHT22;9148;51.454;13.862;2024-03-07T03:25:51;5.80;99.90
18047;DHT22;9148;51.454;13.862;2024-03-07T03:28:17;5.70;99.90
18047;DHT22;9148;51.454;13.862;2024-03-07T03:30:51;5.60;99.90
18047;DHT22;9148;51.454;13.862;2024-03-07T03:33:18;5.50;99.90
18047;DHT22;9148;51.454;13.862;2024-03-07T03:35:44;5.50;99.90
18047;DHT22;9148;51.454;13.862;2024-03-07T03:38:10;5.40;99.90
18047;DHT22;9148;51.454;13.862;2024-03-07T03:40:36;5.30;99.90
18047;DHT22;9148;51.454;13.862;2024-03-07T03:43:01;5.10;99.90
18047;DHT22;9148;51.454;13.862;2024-03-07T03:45:27;5.90;99.90
18047;DHT22;9148;51.454;13.862;2024-03-07T03:47:53;5.00;99.90
18047;DHT22;9148;51.454;13.862;2024-03-07T03:50:19;5.00;99.90
18047;DHT22;9148;51.454;13.862;2024-03-07T03:52:46;4.90;99.90
18047;DHT22;9148;51.454;13.862;2024-03-07T03:55:12;4.90;99.90
18047;DHT22;9148;51.454;13.862;2024-03-07T03:57:39;4.90;99.90
18047;DHT22;9148;51.454;13.862;2024-03-07T04:00:07;4.90;99.90
18047;DHT22;9148;51.454;13.862;2024-03-07T04:02:43;4.80;99.90
18047;DHT22;9148;51.454;13.862;2024-03-07T04:05:13;4.70;99.90
18047;DHT22;9148;51.454;13.862;2024-03-07T04:07:40;4.50;99.90
18047;DHT22;9148;51.454;13.862;2024-03-07T04:10:07;4.40;99.90
18047;DHT22;9148;51.454;13.862;2024-03-07T04:12:37;4.40;99.90
18047;DHT22;9148;51.454;13.862;2024-03-07T04:15:09;4.20;99.90
18047;DHT22;9148;51.454;13.862;2024-03-07T04:17:37;4.20;99.90
18047;DHT22;9148;51.454;13.862;2024-03-07T04:20:05;4.80;99.90
18047;DHT22;9148;51.454;13.862;2024-03-07T04:22:35;4.10;99.90
18047;DHT22;9148;51.454;13.862;2024-03-07T04:25:01;4.00;99.90
18047;DHT22;9148;51.454;13.862;2024-03-07T04:27:27;4.30;99.90
18047;DHT22;9148;51.454;13.862;2024-03-07T04:29:53;4.00;99.90
18047;DHT22;9148;51.454;13.862;2024-03-07T04:32:19;3.90;99.90
18047;DHT22;9148;51.454;13.862;2024-03-07T04:34:48;3.90;99.90
18047;DHT22;9148;51.454;13.862;2024-03-07T04:37:14;3.90;99.90
18047;DHT22;9148;51.454;13.862;2024-03-07T04:39:40;3.90;99.90
18047;DHT22;9148;51.454;13.862;2024-03-07T04:42:07;3.90;99.90
18047;DHT22;9148;51.454;13.862;2024-03-07T04:44:35;3.80;99.90
18047;DHT22;9148;51.454;13.862;2024-03-07T04:47:02;3.70;99.90
18047;DHT22;9148;51.454;13.862;2024-03-07T04:49:30;3.10;99.90
18047;DHT22;9148;51.454;13.862;2024-03-07T04:51:58;3.40;99.90
18047;DHT22;9148;51.454;13.862;2024-03-07T04:54:26;4.00;99.90
18047;DHT22;9148;51.454;13.862;2024-03-07T04:56:53;3.30;99.90
18047;DHT22;9148;51.454;13.862;2024-03-07T04:59:20;3.10;99.90
18047;DHT22;9148;51.454;13.862;2024-03-07T05:01:48;3.00;99.90
18047;DHT22;9148;51.454;13.862;2024-03-07T05:04:15;3.00;99.90
18047;DHT22;9148;51.454;13.862;2024-03-07T05:06:42;2.90;99.90
18047;DHT22;9148;51.454;13.862;2024-03-07T05:09:09;2.80;99.90
18047;DHT22;9148;51.454;13.862;2024-03-07T05:11:46;2.80;99.90
18047;DHT22;9148;51.454;13.862;2024-03-07T05:14:12;2.70;99.90
18047;DHT22;9148;51.454;13.862;2024-03-07T05:16:38;2.50;99.90
18047;DHT22;9148;51.454;13.862;2024-03-07T05:19:03;2.50;99.90
18047;DHT22;9148;51.454;13.862;2024-03-07T05:21:30;2.50;99.90
18047;DHT22;9148;51.454;13.862;2024-03-07T05:24:03;2.30;99.90
18047;DHT22;9148;51.454;13.862;2024-03-07T05:26:30;2.30;99.90
18047;DHT22;9148;51.454;13.862;2024-03-07T05:29:06;2.30;99.90
18047;DHT22;9148;51.454;13.862;2024-03-07T05:31:37;2.10;99.90
18047;DHT22;9148;51.454;13.862;2024-03-07T05:34:07;2.10;99.90
18047;DHT22;9148;51.454;13.862;2024-03-07T05:36:36;1.90;99.90
18047;DHT22;9148;51.454;13.862;2024-03-07T05:39:09;1.90;99.90
18047;DHT22;9148;51.454;13.862;2024-03-07T05:41:39;2.00;99.90
18047;DHT22;9148;51.454;13.862;2024-03-07T05:44:10;1.80;99.90
18047;DHT22;9148;51.454;13.862;2024-03-07T05:46:37;1.80;99.90
18047;DHT22;9148;51.454;13.862;2024-03-07T05:49:14;1.80;99.90
18047;DHT22;9148;51.454;13.862;2024-03-07T05:51:40;1.80;99.90
18047;DHT22;9148;51.454;13.862;2024-03-07T05:54:12;1.80;99.90
18047;DHT22;9148;51.454;13.862;2024-03-07T05:56:39;2.60;99.90
18047;DHT22;9148;51.454;13.862;2024-03-07T05:59:06;1.90;99.90
18047;DHT22;9148;51.454;13.862;2024-03-07T06:01:33;1.90;99.90
18047;DHT22;9148;51.454;13.862;2024-03-07T06:04:03;1.90;99.90
18047;DHT22;9148;51.454;13.862;2024-03-07T06:06:33;1.90;99.90
18047;DHT22;9148;51.454;13.862;2024-03-07T06:09:01;1.80;99.90
18047;DHT22;9148;51.454;13.862;2024-03-07T06:11:34;1.90;99.90
18047;DHT22;9148;51.454;13.862;2024-03-07T06:14:01;2.00;99.90
18047;DHT22;9148;51.454;13.862;2024-03-07T06:16:37;2.00;99.90
18047;DHT22;9148;51.454;13.862;2024-03-07T06:19:04;2.10;99.90
18047;DHT22;9148;51.454;13.862;2024-03-07T06:21:34;2.20;99.90
18047;DHT22;9148;51.454;13.862;2024-03-07T06:24:02;2.30;99.90
18047;DHT22;9148;51.454;13.862;2024-03-07T06:26:29;2.20;99.90
18047;DHT22;9148;51.454;13.862;2024-03-07T06:29:07;3.40;99.90
18047;DHT22;9148;51.454;13.862;2024-03-07T06:31:42;2.60;99.90
18047;DHT22;9148;51.454;13.862;2024-03-07T06:34:08;3.20;99.90
18047;DHT22;9148;51.454;13.862;2024-03-07T06:36:35;2.80;99.90
18047;DHT22;9148;51.454;13.862;2024-03-07T06:39:02;2.90;99.90
18047;DHT22;9148;51.454;13.862;2024-03-07T06:41:31;3.10;99.90
18047;DHT22;9148;51.454;13.862;2024-03-07T06:43:59;3.30;99.90
18047;DHT22;9148;51.454;13.862;2024-03-07T06:46:26;3.60;99.90
18047;DHT22;9148;51.454;13.862;2024-03-07T06:48:51;3.60;99.90
18047;DHT22;9148;51.454;13.862;2024-03-07T06:51:17;3.80;99.90
18047;DHT22;9148;51.454;13.862;2024-03-07T06:53:44;4.90;99.90
18047;DHT22;9148;51.454;13.862;2024-03-07T06:56:12;4.00;99.90
18047;DHT22;9148;51.454;13.862;2024-03-07T06:58:38;4.40;99.90
18047;DHT22;9148;51.454;13.862;2024-03-07T07:01:04;4.40;99.90
18047;DHT22;9148;51.454;13.862;2024-03-07T07:03:35;4.60;99.90
18047;DHT22;9148;51.454;13.862;2024-03-07T07:06:04;4.80;99.90
18047;DHT22;9148;51.454;13.862;2024-03-07T07:08:33;4.80;99.90
18047;DHT22;9148;51.454;13.862;2024-03-07T07:10:59;4.90;99.90
18047;DHT22;9148;51.454;13.862;2024-03-07T07:13:24;5.60;99.90
18047;DHT22;9148;51.454;13.862;2024-03-07T07:15:50;5.10;99.90
18047;DHT22;9148;51.454;13.862;2024-03-07T07:18:16;6.00;99.90
18047;DHT22;9148;51.454;13.862;2024-03-07T07:20:42;5.20;99.90
18047;DHT22;9148;51.454;13.862;2024-03-07T07:23:08;5.90;99.90
18047;DHT22;9148;51.454;13.862;2024-03-07T07:25:34;6.40;99.90
18047;DHT22;9148;51.454;13.862;2024-03-07T07:28:01;5.40;99.90
18047;DHT22;9148;51.454;13.862;2024-03-07T07:30:30;6.10;99.90
18047;DHT22;9148;51.454;13.862;2024-03-07T07:32:55;5.60;99.90
18047;DHT22;9148;51.454;13.862;2024-03-07T07:35:21;5.80;99.90
18047;DHT22;9148;51.454;13.862;2024-03-07T07:37:49;6.30;99.90
18047;DHT22;9148;51.454;13.862;2024-03-07T07:40:18;6.60;99.90
18047;DHT22;9148;51.454;13.862;2024-03-07T07:42:45;6.90;99.90
18047;DHT22;9148;51.454;13.862;2024-03-07T07:45:13;6.30;99.90
18047;DHT22;9148;51.454;13.862;2024-03-07T07:47:44;6.40;99.90
18047;DHT22;9148;51.454;13.862;2024-03-07T07:50:15;7.00;99.90
18047;DHT22;9148;51.454;13.862;2024-03-07T07:52:46;7.10;99.90
18047;DHT22;9148;51.454;13.862;2024-03-07T07:55:27;6.80;99.90
18047;DHT22;9148;51.454;13.862;2024-03-07T07:57:55;7.00;99.90
18047;DHT22;9148;51.454;13.862;2024-03-07T08:00:23;7.00;99.90
18047;DHT22;9148;51.454;13.862;2024-03-07T08:03:00;7.20;99.90
18047;DHT22;9148;51.454;13.862;2024-03-07T08:05:29;7.30;99.90
18047;DHT22;9148;51.454;13.862;2024-03-07T08:08:01;7.40;99.90
18047;DHT22;9148;51.454;13.862;2024-03-07T08:10:31;7.60;99.90
18047;DHT22;9148;51.454;13.862;2024-03-07T08:12:58;7.60;99.90
18047;DHT22;9148;51.454;13.862;2024-03-07T08:15:26;7.80;99.90
18047;DHT22;9148;51.454;13.862;2024-03-07T08:17:53;7.70;99.90
18047;DHT22;9148;51.454;13.862;2024-03-07T08:20:21;7.80;99.90
18047;DHT22;9148;51.454;13.862;2024-03-07T08:22:48;7.80;99.90
18047;DHT22;9148;51.454;13.862;2024-03-07T08:25:18;7.90;99.90
18047;DHT22;9148;51.454;13.862;2024-03-07T08:27:47;8.10;99.90
18047;DHT22;9148;51.454;13.862;2024-03-07T08:30:14;8.20;99.70
18047;DHT22;9148;51.454;13.862;2024-03-07T08:32:48;8.40;99.90
18047;DHT22;9148;51.454;13.862;2024-03-07T08:35:17;8.60;99.10
18047;DHT22;9148;51.454;13.862;2024-03-07T08:37:46;9.00;98.20
18047;DHT22;9148;51.454;13.862;2024-03-07T08:40:19;8.70;95.90
18047;DHT22;9148;51.454;13.862;2024-03-07T08:42:50;8.70;96.50
18047;DHT22;9148;51.454;13.862;2024-03-07T08:45:17;8.70;96.70
18047;DHT22;9148;51.454;13.862;2024-03-07T08:47:48;8.80;97.00
18047;DHT22;9148;51.454;13.862;2024-03-07T08:50:16;8.90;96.30
18047;DHT22;9148;51.454;13.862;2024-03-07T08:52:46;9.00;94.20
18047;DHT22;9148;51.454;13.862;2024-03-07T08:55:18;8.20;93.80
18047;DHT22;9148;51.454;13.862;2024-03-07T08:57:45;8.40;94.00
18047;DHT22;9148;51.454;13.862;2024-03-07T09:00:12;8.20;94.90
18047;DHT22;9148;51.454;13.862;2024-03-07T09:02:50;8.00;95.90
18047;DHT22;9148;51.454;13.862;2024-03-07T09:05:17;7.80;96.70
18047;DHT22;9148;51.454;13.862;2024-03-07T09:07:44;7.60;96.70
18047;DHT22;9148;51.454;13.862;2024-03-07T09:10:14;7.60;97.30
18047;DHT22;9148;51.454;13.862;2024-03-07T09:12:41;7.60;97.60
18047;DHT22;9148;51.454;13.862;2024-03-07T09:15:07;7.50;98.00
18047;DHT22;9148;51.454;13.862;2024-03-07T09:17:35;7.50;98.20
18047;DHT22;9148;51.454;13.862;2024-03-07T09:20:02;7.40;98.50
18047;DHT22;9148;51.454;13.862;2024-03-07T09:22:32;8.10;98.70
18047;DHT22;9148;51.454;13.862;2024-03-07T09:24:58;7.90;98.70
18047;DHT22;9148;51.454;13.862;2024-03-07T09:27:24;7.30;97.90
18047;DHT22;9148;51.454;13.862;2024-03-07T09:29:50;7.10;98.00
18047;DHT22;9148;51.454;13.862;2024-03-07T09:32:17;7.20;98.50
18047;DHT22;9148;51.454;13.862;2024-03-07T09:34:43;7.00;98.60
18047;DHT22;9148;51.454;13.862;2024-03-07T09:37:08;6.90;98.30
18047;DHT22;9148;51.454;13.862;2024-03-07T09:39:35;6.90;98.30
18047;DHT22;9148;51.454;13.862;2024-03-07T09:42:01;7.20;98.30
18047;DHT22;9148;51.454;13.862;2024-03-07T09:44:28;8.00;98.50
18047;DHT22;9148;51.454;13.862;2024-03-07T09:46:55;6.90;98.40
18047;DHT22;9148;51.454;13.862;2024-03-07T09:49:27;7.40;98.50
18047;DHT22;9148;51.454;13.862;2024-03-07T09:51:55;6.80;98.00
18047;DHT22;9148;51.454;13.862;2024-03-07T09:54:25;6.80;98.20
18047;DHT22;9148;51.454;13.862;2024-03-07T09:56:53;7.20;98.30
18047;DHT22;9148;51.454;13.862;2024-03-07T09:59:19;6.90;97.80
18047;DHT22;9148;51.454;13.862;2024-03-07T10:01:50;7.00;98.40
18047;DHT22;9148;51.454;13.862;2024-03-07T10:04:31;7.10;97.90
18047;DHT22;9148;51.454;13.862;2024-03-07T10:07:03;7.60;97.70
18047;DHT22;9148;51.454;13.862;2024-03-07T10:09:29;7.30;96.40
18047;DHT22;9148;51.454;13.862;2024-03-07T10:11:58;7.60;96.20
18047;DHT22;9148;51.454;13.862;2024-03-07T10:14:24;7.50;95.60
18047;DHT22;9148;51.454;13.862;2024-03-07T10:16:53;7.70;95.70
18047;DHT22;9148;51.454;13.862;2024-03-07T10:19:19;7.90;96.10
18047;DHT22;9148;51.454;13.862;2024-03-07T10:21:44;8.30;96.60
18047;DHT22;9148;51.454;13.862;2024-03-07T10:24:10;8.30;96.10
18047;DHT22;9148;51.454;13.862;2024-03-07T10:26:40;8.60;94.40
18047;DHT22;9148;51.454;13.862;2024-03-07T10:29:08;8.50;94.60
18047;DHT22;9148;51.454;13.862;2024-03-07T10:31:34;8.40;94.20
18047;DHT22;9148;51.454;13.862;2024-03-07T10:34:03;8.40;94.40
18047;DHT22;9148;51.454;13.862;2024-03-07T10:36:30;8.10;93.20
18047;DHT22;9148;51.454;13.862;2024-03-07T10:39:00;7.90;93.50
18047;DHT22;9148;51.454;13.862;2024-03-07T10:41:48;7.80;94.10
18047;DHT22;9148;51.454;13.862;2024-03-07T10:44:24;7.60;94.20
18047;DHT22;9148;51.454;13.862;2024-03-07T10:46:55;7.50;93.90
18047;DHT22;9148;51.454;13.862;2024-03-07T10:49:25;7.50;94.00
18047;DHT22;9148;51.454;13.862;2024-03-07T10:52:12;7.60;94.50
18047;DHT22;9148;51.454;13.862;2024-03-07T10:55:12;7.50;93.70
18047;DHT22;9148;51.454;13.862;2024-03-07T10:57:51;7.50;92.60
18047;DHT22;9148;51.454;13.862;2024-03-07T11:00:21;7.40;90.70
18047;DHT22;9148;51.454;13.862;2024-03-07T11:03:01;7.40;90.00
18047;DHT22;9148;51.454;13.862;2024-03-07T11:05:33;7.40;90.20
18047;DHT22;9148;51.454;13.862;2024-03-07T11:08:00;7.40;89.70
18047;DHT22;9148;51.454;13.862;2024-03-07T11:10:37;7.40;90.00
18047;DHT22;9148;51.454;13.862;2024-03-07T11:13:07;7.60;90.10
18047;DHT22;9148;51.454;13.862;2024-03-07T11:15:39;7.50;89.30
18047;DHT22;9148;51.454;13.862;2024-03-07T11:18:07;7.60;88.10
18047;DHT22;9148;51.454;13.862;2024-03-07T11:20:37;7.60;89.30
18047;DHT22;9148;51.454;13.862;2024-03-07T11:23:29;7.60;88.30
18047;DHT22;9148;51.454;13.862;2024-03-07T11:26:05;8.10;87.90
18047;DHT22;9148;51.454;13.862;2024-03-07T11:28:35;7.60;87.70
18047;DHT22;9148;51.454;13.862;2024-03-07T11:34:12;7.60;87.50
18047;DHT22;9148;51.454;13.862;2024-03-07T11:36:47;7.60;87.30
18047;DHT22;9148;51.454;13.862;2024-03-07T11:39:46;7.60;87.60
18047;DHT22;9148;51.454;13.862;2024-03-07T11:44:49;7.90;88.80
18047;DHT22;9148;51.454;13.862;2024-03-07T11:47:16;7.90;87.30
18047;DHT22;9148;51.454;13.862;2024-03-07T11:49:43;7.90;87.40
18047;DHT22;9148;51.454;13.862;2024-03-07T11:52:14;8.10;89.90
18047;DHT22;9148;51.454;13.862;2024-03-07T11:54:42;8.50;89.30
18047;DHT22;9148;51.454;13.862;2024-03-07T11:57:18;9.10;87.50
18047;DHT22;9148;51.454;13.862;2024-03-07T11:59:58;9.60;86.00
18047;DHT22;9148;51.454;13.862;2024-03-07T12:02:26;9.40;83.30
18047;DHT22;9148;51.454;13.862;2024-03-07T12:04:53;10.20;76.70
18047;DHT22;9148;51.454;13.862;2024-03-07T12:07:19;10.20;76.20
18047;DHT22;9148;51.454;13.862;2024-03-07T12:09:48;10.20;78.80
18047;DHT22;9148;51.454;13.862;2024-03-07T12:12:20;10.20;78.10
18047;DHT22;9148;51.454;13.862;2024-03-07T12:14:55;10.10;79.00
18047;DHT22;9148;51.454;13.862;2024-03-07T12:17:22;10.00;79.10
18047;DHT22;9148;51.454;13.862;2024-03-07T12:19:48;9.80;79.70
18047;DHT22;9148;51.454;13.862;2024-03-07T12:22:19;9.80;80.90
18047;DHT22;9148;51.454;13.862;2024-03-07T12:24:58;9.70;81.10
18047;DHT22;9148;51.454;13.862;2024-03-07T12:27:27;9.90;79.20
18047;DHT22;9148;51.454;13.862;2024-03-07T12:29:54;9.90;78.80
18047;DHT22;9148;51.454;13.862;2024-03-07T12:32:19;10.00;78.80
18047;DHT22;9148;51.454;13.862;2024-03-07T12:34:46;10.30;79.90
18047;DHT22;9148;51.454;13.862;2024-03-07T12:37:15;10.80;80.50
18047;DHT22;9148;51.454;13.862;2024-03-07T12:39:42;11.10;76.30
18047;DHT22;9148;51.454;13.862;2024-03-07T12:42:12;11.50;75.10
18047;DHT22;9148;51.454;13.862;2024-03-07T12:44:44;11.70;73.60
18047;DHT22;9148;51.454;13.862;2024-03-07T12:47:16;11.80;72.70
18047;DHT22;9148;51.454;13.862;2024-03-07T12:49:45;11.80;72.10
18047;DHT22;9148;51.454;13.862;2024-03-07T12:52:14;11.80;72.70
18047;DHT22;9148;51.454;13.862;2024-03-07T12:54:41;11.90;72.00
18047;DHT22;9148;51.454;13.862;2024-03-07T12:57:10;11.80;68.00
18047;DHT22;9148;51.454;13.862;2024-03-07T12:59:37;11.70;68.60
18047;DHT22;9148;51.454;13.862;2024-03-07T13:02:07;11.40;68.70
18047;DHT22;9148;51.454;13.862;2024-03-07T13:04:33;11.10;69.90
18047;DHT22;9148;51.454;13.862;2024-03-07T13:06:59;11.20;69.90
18047;DHT22;9148;51.454;13.862;2024-03-07T13:09:35;11.40;69.60
18047;DHT22;9148;51.454;13.862;2024-03-07T13:12:03;11.70;70.40
18047;DHT22;9148;51.454;13.862;2024-03-07T13:14:32;12.00;68.30
18047;DHT22;9148;51.454;13.862;2024-03-07T13:17:02;12.30;68.40
18047;DHT22;9148;51.454;13.862;2024-03-07T13:19:32;12.50;66.80
18047;DHT22;9148;51.454;13.862;2024-03-07T13:21:58;12.60;65.40
18047;DHT22;9148;51.454;13.862;2024-03-07T13:24:25;12.70;64.70
18047;DHT22;9148;51.454;13.862;2024-03-07T13:26:53;12.90;62.70
18047;DHT22;9148;51.454;13.862;2024-03-07T13:29:19;12.90;62.90
18047;DHT22;9148;51.454;13.862;2024-03-07T13:31:50;13.10;61.60
18047;DHT22;9148;51.454;13.862;2024-03-07T13:34:17;13.20;58.80
18047;DHT22;9148;51.454;13.862;2024-03-07T13:36:44;12.60;58.20
18047;DHT22;9148;51.454;13.862;2024-03-07T13:39:11;12.50;58.50
18047;DHT22;9148;51.454;13.862;2024-03-07T13:41:42;12.00;58.60
18047;DHT22;9148;51.454;13.862;2024-03-07T13:44:08;11.60;59.80
18047;DHT22;9148;51.454;13.862;2024-03-07T13:46:34;11.50;60.90
18047;DHT22;9148;51.454;13.862;2024-03-07T13:49:01;10.20;61.30
18047;DHT22;9148;51.454;13.862;2024-03-07T13:51:36;11.60;62.60
18047;DHT22;9148;51.454;13.862;2024-03-07T13:54:02;11.80;61.30
18047;DHT22;9148;51.454;13.862;2024-03-07T14:00:31;12.30;59.60
18047;DHT22;9148;51.454;13.862;2024-03-07T14:07:08;12.50;58.50
18047;DHT22;9148;51.454;13.862;2024-03-07T14:13:31;12.50;58.80
18047;DHT22;9148;51.454;13.862;2024-03-07T14:16:13;12.50;58.10
18047;DHT22;9148;51.454;13.862;2024-03-07T14:19:32;12.20;58.00
18047;DHT22;9148;51.454;13.862;2024-03-07T14:22:47;11.80;58.80
18047;DHT22;9148;51.454;13.862;2024-03-07T14:29:09;11.10;60.70
18047;DHT22;9148;51.454;13.862;2024-03-07T14:31:57;11.00;59.70
18047;DHT22;9148;51.454;13.862;2024-03-07T14:37:53;11.10;60.70
18047;DHT22;9148;51.454;13.862;2024-03-07T14:40:22;10.90;60.20
18047;DHT22;9148;51.454;13.862;2024-03-07T14:42:50;10.70;61.40
18047;DHT22;9148;51.454;13.862;2024-03-07T14:45:21;10.40;62.00
18047;DHT22;9148;51.454;13.862;2024-03-07T14:47:50;10.20;63.30
18047;DHT22;9148;51.454;13.862;2024-03-07T14:50:20;10.00;64.20
18047;DHT22;9148;51.454;13.862;2024-03-07T14:52:49;9.80;65.50
18047;DHT22;9148;51.454;13.862;2024-03-07T14:55:16;9.70;65.40
18047;DHT22;9148;51.454;13.862;2024-03-07T14:57:44;9.60;65.10
18047;DHT22;9148;51.454;13.862;2024-03-07T15:00:11;9.50;65.30
18047;DHT22;9148;51.454;13.862;2024-03-07T15:02:46;9.40;65.40
18047;DHT22;9148;51.454;13.862;2024-03-07T15:05:14;9.30;66.00
18047;DHT22;9148;51.454;13.862;2024-03-07T15:07:48;9.10;66.60
18047;DHT22;9148;51.454;13.862;2024-03-07T15:10:33;9.00;67.10
18047;DHT22;9148;51.454;13.862;2024-03-07T15:13:00;8.80;67.10
18047;DHT22;9148;51.454;13.862;2024-03-07T15:15:25;8.70;67.00
18047;DHT22;9148;51.454;13.862;2024-03-07T15:17:56;8.60;67.30
18047;DHT22;9148;51.454;13.862;2024-03-07T15:20:23;8.60;67.70
18047;DHT22;9148;51.454;13.862;2024-03-07T15:22:51;8.60;68.00
18047;DHT22;9148;51.454;13.862;2024-03-07T15:25:18;8.50;67.70
18047;DHT22;9148;51.454;13.862;2024-03-07T15:27:44;8.40;67.20
18047;DHT22;9148;51.454;13.862;2024-03-07T15:30:17;8.20;67.80
18047;DHT22;9148;51.454;13.862;2024-03-07T15:32:45;8.00;68.40
18047;DHT22;9148;51.454;13.862;2024-03-07T15:35:13;7.90;69.10
18047;DHT22;9148;51.454;13.862;2024-03-07T15:37:48;7.80;69.60
18047;DHT22;9148;51.454;13.862;2024-03-07T15:40:15;7.80;70.00
18047;DHT22;9148;51.454;13.862;2024-03-07T15:42:45;7.70;70.40
18047;DHT22;9148;51.454;13.862;2024-03-07T15:45:15;7.70;70.40
18047;DHT22;9148;51.454;13.862;2024-03-07T15:50:17;7.90;71.10
18047;DHT22;9148;51.454;13.862;2024-03-07T15:52:50;8.00;71.30
18047;DHT22;9148;51.454;13.862;2024-03-07T15:55:20;7.90;71.30
18047;DHT22;9148;51.454;13.862;2024-03-07T15:57:54;7.90;70.70
18047;DHT22;9148;51.454;13.862;2024-03-07T16:00:25;7.90;70.80
18047;DHT22;9148;51.454;13.862;2024-03-07T16:03:06;7.70;71.00
18047;DHT22;9148;51.454;13.862;2024-03-07T16:05:41;7.70;71.70
18047;DHT22;9148;51.454;13.862;2024-03-07T16:08:13;7.30;72.10
18047;DHT22;9148;51.454;13.862;2024-03-07T16:10:40;7.30;72.70
18047;DHT22;9148;51.454;13.862;2024-03-07T16:13:08;7.00;73.10
18047;DHT22;9148;51.454;13.862;2024-03-07T16:15:38;7.30;73.70
18047;DHT22;9148;51.454;13.862;2024-03-07T16:18:04;6.70;73.70
18047;DHT22;9148;51.454;13.862;2024-03-07T16:20:32;6.60;74.00
18047;DHT22;9148;51.454;13.862;2024-03-07T16:23:04;6.50;74.30